Time;durP1;ratioP1;P1;durP2;ratioP2;P2;SDS_P1;SDS_P2;PMS_P1;PMS_P2;Temp;Humidity;BMP_temperature;BMP_pressure;BME280_temperature;BME280_humidity;BME280_pressure;Samples;Min_cycle;Max_cycle;Signal;HPM_P1;HPM_P2
2022/03/31 00:00:29;;;;;;;25.20;15.07;;;;;;;;;;5049880;28;20395;-74
2022/03/31 00:02:56;;;;;;;23.90;13.70;;;;;;;;;;5049107;28;20033;-75
2022/03/31 00:05:22;;;;;;;23.23;14.18;;;;;;;;;;5048384;28;20478;-75
2022/03/31 00:07:55;;;;;;;27.00;13.93;;;;;;;;;;5048176;28;20039;-74
2022/03/31 00:10:23;;;;;;;26.45;14.52;;;;;;;;;;5027285;28;20044;-73
2022/03/31 00:12:52;;;;;;;23.33;13.45;;;;;;;;;;5037299;28;20033;-74
2022/03/31 00:15:18;;;;;;;27.77;14.60;;;;;;;;;;5010299;28;20037;-74
2022/03/31 00:17:44;;;;;;;24.40;13.75;;;;;;;;;;5020298;28;20097;-74
2022/03/31 00:20:11;;;;;;;23.92;14.02;;;;;;;;;;5048983;28;20457;-74
2022/03/31 00:22:39;;;;;;;24.75;14.63;;;;;;;;;;5049535;28;20040;-74
2022/03/31 00:25:06;;;;;;;23.83;13.57;;;;;;;;;;5049534;28;20021;-74
2022/03/31 00:27:32;;;;;;;23.90;13.65;;;;;;;;;;5030511;28;20044;-74
2022/03/31 00:29:57;;;;;;;27.77;14.35;;;;;;;;;;5049341;28;20100;-74
2022/03/31 00:32:26;;;;;;;26.40;14.30;;;;;;;;;;5049519;28;20063;-74
2022/03/31 00:34:52;;;;;;;23.90;13.95;;;;;;;;;;5031207;28;20398;-75
2022/03/31 00:37:18;;;;;;;25.23;13.55;;;;;;;;;;5049110;28;20027;-74
2022/03/31 00:39:44;;;;;;;22.35;12.95;;;;;;;;;;5049201;28;20056;-74
2022/03/31 00:42:10;;;;;;;19.88;12.18;;;;;;;;;;5049761;28;20052;-74
2022/03/31 00:44:36;;;;;;;23.77;13.82;;;;;;;;;;5049452;28;20056;-74
2022/03/31 00:47:03;;;;;;;23.13;13.05;;;;;;;;;;5049594;28;20033;-74
2022/03/31 00:49:29;;;;;;;22.60;13.05;;;;;;;;;;5048933;28;20043;-74
2022/03/31 00:51:55;;;;;;;21.38;12.00;;;;;;;;;;5049058;28;20037;-74
2022/03/31 00:54:25;;;;;;;23.88;13.65;;;;;;;;;;5049060;28;20104;-74
2022/03/31 00:56:51;;;;;;;23.92;13.73;;;;;;;;;;5048900;28;20407;-74
2022/03/31 00:59:18;;;;;;;22.02;13.75;;;;;;;;;;5048998;28;20040;-75
2022/03/31 01:01:46;;;;;;;22.77;13.15;;;;;;;;;;5049043;28;20033;-74
2022/03/31 01:04:13;;;;;;;23.27;13.50;;;;;;;;;;5056069;28;20040;-74
2022/03/31 01:06:40;;;;;;;24.15;13.52;;;;;;;;;;5048945;28;20048;-74
2022/03/31 01:09:06;;;;;;;22.55;13.35;;;;;;;;;;5049005;28;20115;-75
2022/03/31 01:11:32;;;;;;;21.65;11.70;;;;;;;;;;5030335;28;20133;-74
2022/03/31 01:13:59;;;;;;;23.65;13.38;;;;;;;;;;5030794;28;20489;-74
2022/03/31 01:16:25;;;;;;;21.77;12.15;;;;;;;;;;5049152;28;20035;-75
2022/03/31 01:18:51;;;;;;;21.55;13.05;;;;;;;;;;5048855;28;20047;-75
2022/03/31 01:21:18;;;;;;;22.67;12.75;;;;;;;;;;5030547;28;20041;-74
2022/03/31 01:23:45;;;;;;;23.90;12.80;;;;;;;;;;5049026;28;20466;-74
2022/03/31 01:26:11;;;;;;;22.52;13.07;;;;;;;;;;5048924;28;20037;-75
2022/03/31 01:28:41;;;;;;;23.95;12.93;;;;;;;;;;5048824;28;20047;-75
2022/03/31 01:31:07;;;;;;;22.90;12.45;;;;;;;;;;5048948;28;20025;-75
2022/03/31 01:33:33;;;;;;;22.52;12.88;;;;;;;;;;5048985;28;20032;-75
2022/03/31 01:35:59;;;;;;;22.58;12.85;;;;;;;;;;5049148;28;20024;-75
2022/03/31 01:38:25;;;;;;;25.48;12.52;;;;;;;;;;5030608;28;20051;-75
2022/03/31 01:40:51;;;;;;;25.10;13.65;;;;;;;;;;5033373;28;20037;-74
2022/03/31 01:43:19;;;;;;;23.52;12.38;;;;;;;;;;5053026;28;20025;-73
2022/03/31 01:45:45;;;;;;;24.33;12.82;;;;;;;;;;5052943;28;20025;-74
2022/03/31 01:48:12;;;;;;;27.45;13.30;;;;;;;;;;5052665;28;20497;-74
2022/03/31 01:50:38;;;;;;;23.48;12.73;;;;;;;;;;5052387;28;20493;-74
2022/03/31 01:53:04;;;;;;;26.63;12.48;;;;;;;;;;5051142;28;20037;-74
2022/03/31 01:55:30;;;;;;;22.45;12.13;;;;;;;;;;5051015;28;20059;-75
2022/03/31 01:57:58;;;;;;;24.70;12.35;;;;;;;;;;5050830;28;20036;-75
2022/03/31 02:00:24;;;;;;;23.63;12.40;;;;;;;;;;5050608;28;20017;-74
2022/03/31 02:02:50;;;;;;;23.13;12.57;;;;;;;;;;5049810;28;20044;-73
2022/03/31 02:05:19;;;;;;;24.08;12.63;;;;;;;;;;5031799;28;20120;-75
2022/03/31 02:07:45;;;;;;;23.80;12.95;;;;;;;;;;5031980;28;20501;-73
2022/03/31 02:10:12;;;;;;;23.83;12.45;;;;;;;;;;5032384;28;20121;-74
2022/03/31 02:12:40;;;;;;;22.80;12.48;;;;;;;;;;5032285;28;20040;-72
2022/03/31 02:15:07;;;;;;;22.02;11.85;;;;;;;;;;5032227;28;20033;-73
2022/03/31 02:17:33;;;;;;;21.08;12.18;;;;;;;;;;5032043;28;20030;-73
2022/03/31 02:19:59;;;;;;;24.95;12.05;;;;;;;;;;5032118;28;20029;-73
2022/03/31 02:22:24;;;;;;;25.33;12.88;;;;;;;;;;5032208;28;20031;-73
2022/03/31 02:24:50;;;;;;;21.88;10.90;;;;;;;;;;5032042;28;20482;-73
2022/03/31 02:27:16;;;;;;;21.38;12.20;;;;;;;;;;5038012;28;20056;-74
2022/03/31 02:29:42;;;;;;;22.00;11.45;;;;;;;;;;5051814;28;20071;-74
2022/03/31 02:32:08;;;;;;;23.25;12.20;;;;;;;;;;5033624;28;20426;-74
2022/03/31 02:34:35;;;;;;;21.65;11.38;;;;;;;;;;5051676;28;20028;-74
2022/03/31 02:37:03;;;;;;;24.98;12.27;;;;;;;;;;5051571;28;20021;-74
2022/03/31 02:39:29;;;;;;;22.95;11.77;;;;;;;;;;5051451;28;20021;-74
2022/03/31 02:42:01;;;;;;;23.08;11.93;;;;;;;;;;5032617;28;20029;-74
2022/03/31 02:44:27;;;;;;;;;;;;;;;;;;5052186;28;20406;-74
2022/03/31 02:46:52;;;;;;;24.00;12.30;;;;;;;;;;5051363;28;19913;-74
2022/03/31 02:49:18;;;;;;;22.55;11.82;;;;;;;;;;5051358;28;20048;-74
2022/03/31 02:51:44;;;;;;;26.15;13.02;;;;;;;;;;5031929;28;20397;-73
2022/03/31 02:56:55;;;;;;;23.88;12.65;;;;;;;;;;5051119;28;20029;-74
2022/03/31 02:59:21;;;;;;;22.17;12.00;;;;;;;;;;5051226;28;20477;-74
2022/03/31 03:01:47;;;;;;;22.48;11.88;;;;;;;;;;5051226;28;20107;-74
2022/03/31 03:04:13;;;;;;;26.20;12.73;;;;;;;;;;5032459;28;20386;-75
2022/03/31 03:06:39;;;;;;;24.52;12.13;;;;;;;;;;5050872;28;20033;-74
2022/03/31 03:09:06;;;;;;;24.95;12.70;;;;;;;;;;5050856;28;20090;-74
2022/03/31 03:11:33;;;;;;;25.90;12.88;;;;;;;;;;5051027;28;20031;-74
2022/03/31 03:13:59;;;;;;;23.80;12.95;;;;;;;;;;5050957;28;20371;-74
2022/03/31 03:16:25;;;;;;;25.10;12.38;;;;;;;;;;5050816;28;20449;-74
2022/03/31 03:18:52;;;;;;;27.60;12.52;;;;;;;;;;5050698;28;20393;-74
2022/03/31 03:21:19;;;;;;;27.27;12.40;;;;;;;;;;5050593;28;20033;-73
2022/03/31 03:23:46;;;;;;;24.80;12.73;;;;;;;;;;5050707;28;20040;-74
2022/03/31 03:26:12;;;;;;;24.50;12.18;;;;;;;;;;5050585;28;20477;-73
2022/03/31 03:28:38;;;;;;;25.83;13.00;;;;;;;;;;5050639;28;20043;-74
2022/03/31 03:31:05;;;;;;;24.75;12.85;;;;;;;;;;5050654;28;20036;-74
2022/03/31 03:33:32;;;;;;;28.20;12.75;;;;;;;;;;5050783;28;20533;-74
2022/03/31 03:35:59;;;;;;;25.27;12.43;;;;;;;;;;5050437;28;20037;-74
2022/03/31 03:38:26;;;;;;;24.63;12.40;;;;;;;;;;5050374;28;20029;-74
2022/03/31 03:40:52;;;;;;;22.20;11.63;;;;;;;;;;5050314;28;20028;-74
2022/03/31 03:43:18;;;;;;;28.08;14.05;;;;;;;;;;5050454;28;20033;-74
2022/03/31 03:45:47;;;;;;;27.38;13.55;;;;;;;;;;5031420;28;20677;-74
2022/03/31 03:48:13;;;;;;;25.23;12.40;;;;;;;;;;5050327;28;20450;-74
2022/03/31 03:50:39;;;;;;;24.95;12.43;;;;;;;;;;5050539;28;20033;-76
2022/03/31 03:53:06;;;;;;;26.13;13.00;;;;;;;;;;5050679;28;20040;-74
2022/03/31 03:55:34;;;;;;;25.92;13.13;;;;;;;;;;5050298;28;20029;-73
2022/03/31 03:58:01;;;;;;;25.17;12.63;;;;;;;;;;5034387;28;20025;-73
2022/03/31 04:00:27;;;;;;;28.38;14.00;;;;;;;;;;5030512;28;20029;-74
2022/03/31 04:02:54;;;;;;;27.65;13.48;;;;;;;;;;5030256;28;20029;-74
2022/03/31 04:05:21;;;;;;;26.85;13.88;;;;;;;;;;5030769;28;20390;-74
2022/03/31 04:07:47;;;;;;;25.50;12.75;;;;;;;;;;5030677;28;20060;-73
2022/03/31 04:10:13;;;;;;;24.75;13.32;;;;;;;;;;5030721;28;20028;-74
2022/03/31 04:12:40;;;;;;;24.30;13.10;;;;;;;;;;5030720;28;20025;-73
2022/03/31 04:15:08;;;;;;;33.65;14.27;;;;;;;;;;5030583;28;20037;-75
2022/03/31 04:17:33;;;;;;;29.63;14.30;;;;;;;;;;5042929;28;20029;-74
2022/03/31 04:19:59;;;;;;;32.58;15.38;;;;;;;;;;5035722;28;20379;-74
2022/03/31 04:22:26;;;;;;;35.63;14.50;;;;;;;;;;5042418;28;20059;-75
2022/03/31 04:24:52;;;;;;;28.98;14.13;;;;;;;;;;5041450;28;20021;-74
2022/03/31 04:27:17;;;;;;;33.70;14.15;;;;;;;;;;5040555;28;20060;-74
2022/03/31 04:29:43;;;;;;;29.73;14.20;;;;;;;;;;5039846;28;20051;-74
2022/03/31 04:32:10;;;;;;;27.50;14.25;;;;;;;;;;5048173;28;20032;-74
2022/03/31 04:34:35;;;;;;;28.15;14.07;;;;;;;;;;5042665;28;20036;-74
2022/03/31 04:37:02;;;;;;;30.33;14.57;;;;;;;;;;5048487;28;20053;-74
2022/03/31 04:39:28;;;;;;;30.83;15.23;;;;;;;;;;5048789;28;20056;-74
2022/03/31 04:41:54;;;;;;;28.85;13.95;;;;;;;;;;5048646;28;20477;-74
2022/03/31 04:44:20;;;;;;;29.73;14.27;;;;;;;;;;5038721;28;20394;-74
2022/03/31 04:46:46;;;;;;;29.27;13.73;;;;;;;;;;5022414;28;20033;-74
2022/03/31 04:49:12;;;;;;;29.13;13.98;;;;;;;;;;5046462;28;20092;-70
2022/03/31 04:51:39;;;;;;;31.20;14.82;;;;;;;;;;5044294;28;20505;-74
2022/03/31 04:54:05;;;;;;;32.10;14.75;;;;;;;;;;5019742;28;20039;-75
2022/03/31 04:56:31;;;;;;;34.10;14.93;;;;;;;;;;5029149;28;20034;-75
2022/03/31 04:58:58;;;;;;;27.95;14.48;;;;;;;;;;5010561;28;20026;-73
2022/03/31 05:01:24;;;;;;;29.85;14.38;;;;;;;;;;5010590;28;20041;-74
2022/03/31 05:03:54;;;;;;;29.75;14.73;;;;;;;;;;5044506;28;20036;-74
2022/03/31 05:06:20;;;;;;;32.08;15.10;;;;;;;;;;5048864;28;20142;-72
2022/03/31 05:08:46;;;;;;;35.63;15.73;;;;;;;;;;5048845;28;20025;-73
2022/03/31 05:11:12;;;;;;;33.17;15.20;;;;;;;;;;5048738;28;20486;-74
2022/03/31 05:13:38;;;;;;;27.23;13.63;;;;;;;;;;5048656;28;20036;-73
2022/03/31 05:16:05;;;;;;;32.95;15.63;;;;;;;;;;5048389;28;20052;-75
2022/03/31 05:18:31;;;;;;;30.27;14.20;;;;;;;;;;5048874;28;20024;-74
2022/03/31 05:20:57;;;;;;;32.00;16.65;;;;;;;;;;5048711;28;20044;-75
2022/03/31 05:23:23;;;;;;;59.47;31.40;;;;;;;;;;5048211;28;20068;-75
2022/03/31 05:25:50;;;;;;;29.17;14.80;;;;;;;;;;5031383;28;20053;-75
2022/03/31 05:28:16;;;;;;;35.20;15.25;;;;;;;;;;5027316;28;20037;-82
2022/03/31 05:30:43;;;;;;;31.48;14.90;;;;;;;;;;5060192;28;20039;-78
2022/03/31 05:33:09;;;;;;;32.58;15.48;;;;;;;;;;5064113;28;20029;-80
2022/03/31 05:35:35;;;;;;;30.40;15.02;;;;;;;;;;5037443;28;20044;-78
2022/03/31 05:38:03;;;;;;;33.38;14.85;;;;;;;;;;5044103;28;20017;-78
2022/03/31 05:40:29;;;;;;;29.13;14.43;;;;;;;;;;5046331;28;20506;-80
2022/03/31 05:42:55;;;;;;;26.95;14.43;;;;;;;;;;5039193;28;20033;-79
2022/03/31 05:45:22;;;;;;;31.88;14.52;;;;;;;;;;5027842;28;20047;-75
2022/03/31 05:47:48;;;;;;;29.15;14.88;;;;;;;;;;5024950;28;20414;-79
2022/03/31 05:50:14;;;;;;;29.60;15.30;;;;;;;;;;5034877;28;20471;-77
2022/03/31 05:52:43;;;;;;;27.50;14.05;;;;;;;;;;5036694;28;20028;-76
2022/03/31 05:55:17;;;;;;;29.27;14.90;;;;;;;;;;5027481;28;20052;-79
2022/03/31 05:57:43;;;;;;;30.02;14.23;;;;;;;;;;5048583;28;20390;-81
2022/03/31 06:00:13;;;;;;;39.67;14.98;;;;;;;;;;5045896;28;20040;-77
2022/03/31 06:02:39;;;;;;;32.33;16.08;;;;;;;;;;5026866;28;20030;-75
2022/03/31 06:05:06;;;;;;;35.03;18.27;;;;;;;;;;5038915;28;20040;-75
2022/03/31 06:07:32;;;;;;;30.65;16.23;;;;;;;;;;5048282;28;20028;-75
2022/03/31 06:09:58;;;;;;;27.90;14.57;;;;;;;;;;5047931;28;20025;-75
2022/03/31 06:12:24;;;;;;;25.50;14.25;;;;;;;;;;5047594;28;20610;-75
2022/03/31 06:14:50;;;;;;;26.50;13.63;;;;;;;;;;5048209;28;20116;-75
2022/03/31 06:17:16;;;;;;;24.52;12.77;;;;;;;;;;5029795;28;20150;-75
2022/03/31 06:19:43;;;;;;;26.35;13.60;;;;;;;;;;5048457;28;20041;-74
2022/03/31 06:22:09;;;;;;;30.45;13.73;;;;;;;;;;5048485;28;20033;-76
2022/03/31 06:24:35;;;;;;;25.92;13.80;;;;;;;;;;5048233;28;20036;-75
2022/03/31 06:27:02;;;;;;;28.38;13.05;;;;;;;;;;5051272;28;20021;-74
2022/03/31 06:29:30;;;;;;;28.00;15.20;;;;;;;;;;5033250;28;20055;-75
2022/03/31 06:31:56;;;;;;;43.78;22.63;;;;;;;;;;5051836;28;20025;-75
2022/03/31 06:34:23;;;;;;;28.30;14.02;;;;;;;;;;5051986;28;20499;-75
2022/03/31 06:36:49;;;;;;;22.45;13.10;;;;;;;;;;5051273;28;20402;-75
2022/03/31 06:39:16;;;;;;;24.98;13.57;;;;;;;;;;5051373;28;20025;-75
2022/03/31 06:41:42;;;;;;;24.10;13.60;;;;;;;;;;5032667;28;20366;-76
2022/03/31 06:44:08;;;;;;;24.00;13.95;;;;;;;;;;5032776;28;20052;-76
2022/03/31 06:46:35;;;;;;;30.75;14.73;;;;;;;;;;5051290;28;20036;-75
2022/03/31 06:49:02;;;;;;;24.77;13.25;;;;;;;;;;5051120;28;20228;-76
2022/03/31 06:51:28;;;;;;;24.75;13.43;;;;;;;;;;5051921;28;20462;-75
2022/03/31 06:53:57;;;;;;;26.73;14.13;;;;;;;;;;5051891;28;20421;-75
2022/03/31 06:56:27;;;;;;;27.35;14.05;;;;;;;;;;5032979;28;20204;-76
2022/03/31 06:58:56;;;;;;;24.50;13.48;;;;;;;;;;5051038;28;20043;-75
2022/03/31 07:01:23;;;;;;;31.50;15.23;;;;;;;;;;5051398;28;20425;-75
2022/03/31 07:03:49;;;;;;;30.75;14.38;;;;;;;;;;5047262;28;20417;-76
2022/03/31 07:06:15;;;;;;;32.97;14.45;;;;;;;;;;5051294;28;20032;-76
2022/03/31 07:08:41;;;;;;;28.75;14.35;;;;;;;;;;5050872;28;20029;-76
2022/03/31 07:11:09;;;;;;;33.03;14.50;;;;;;;;;;5014475;28;20062;-75
2022/03/31 07:13:35;;;;;;;24.52;14.02;;;;;;;;;;5038563;28;20029;-74
2022/03/31 07:16:01;;;;;;;25.95;13.45;;;;;;;;;;5044353;28;20029;-74
2022/03/31 07:18:26;;;;;;;28.67;12.43;;;;;;;;;;5022174;28;20082;-74
2022/03/31 07:20:53;;;;;;;25.90;13.38;;;;;;;;;;5041351;28;20056;-74
2022/03/31 07:23:21;;;;;;;23.23;12.85;;;;;;;;;;5031788;28;20399;-74
2022/03/31 07:25:47;;;;;;;29.38;15.15;;;;;;;;;;5040771;28;20037;-76
2022/03/31 07:28:14;;;;;;;25.85;13.00;;;;;;;;;;5046349;28;20366;-75
2022/03/31 07:30:40;;;;;;;26.05;13.43;;;;;;;;;;5050409;28;20025;-75
2022/03/31 07:33:05;;;;;;;25.90;14.27;;;;;;;;;;5050505;28;20048;-74
2022/03/31 07:35:34;;;;;;;24.45;13.32;;;;;;;;;;5050050;28;20063;-74
2022/03/31 07:38:03;;;;;;;22.85;13.35;;;;;;;;;;5049615;28;20029;-75
2022/03/31 07:40:29;;;;;;;22.88;13.25;;;;;;;;;;5050709;28;20537;-77
2022/03/31 07:42:56;;;;;;;24.30;13.38;;;;;;;;;;5050427;28;20056;-75
2022/03/31 07:45:23;;;;;;;23.42;14.15;;;;;;;;;;5050242;28;20025;-76
2022/03/31 07:47:49;;;;;;;22.70;13.05;;;;;;;;;;5047609;28;20386;-75
2022/03/31 07:50:17;;;;;;;26.80;13.70;;;;;;;;;;5027056;28;20045;-75
2022/03/31 07:52:45;;;;;;;26.25;14.23;;;;;;;;;;5031260;28;20148;-75
2022/03/31 07:55:13;;;;;;;24.63;13.70;;;;;;;;;;5043980;28;20026;-76
2022/03/31 07:57:39;;;;;;;25.63;14.35;;;;;;;;;;5030041;28;20029;-74
2022/03/31 08:00:07;;;;;;;25.63;13.43;;;;;;;;;;5030168;28;20403;-75
2022/03/31 08:02:33;;;;;;;23.60;13.90;;;;;;;;;;5011960;28;20037;-75
2022/03/31 08:04:59;;;;;;;26.08;13.48;;;;;;;;;;5036817;28;20481;-75
2022/03/31 08:07:25;;;;;;;24.70;14.10;;;;;;;;;;5046168;28;20137;-75
2022/03/31 08:09:51;;;;;;;62.35;33.83;;;;;;;;;;5032793;28;20056;-75
2022/03/31 08:12:17;;;;;;;26.25;13.80;;;;;;;;;;5037255;28;20422;-76
2022/03/31 08:14:43;;;;;;;24.25;12.73;;;;;;;;;;5044396;28;20021;-76
2022/03/31 08:17:09;;;;;;;24.17;13.52;;;;;;;;;;5045623;28;20672;-76
2022/03/31 08:19:35;;;;;;;26.05;13.75;;;;;;;;;;5038962;28;20450;-75
2022/03/31 08:22:01;;;;;;;22.85;13.52;;;;;;;;;;5046415;28;20031;-77
2022/03/31 08:24:28;;;;;;;26.00;13.45;;;;;;;;;;5047573;28;20037;-78
2022/03/31 08:26:54;;;;;;;24.38;13.75;;;;;;;;;;5021376;28;20140;-76
2022/03/31 08:29:20;;;;;;;29.00;14.27;;;;;;;;;;5046840;28;20041;-75
2022/03/31 08:31:46;;;;;;;22.75;12.80;;;;;;;;;;5047020;28;20097;-80
2022/03/31 08:34:12;;;;;;;24.52;14.23;;;;;;;;;;5047392;28;20044;-79
2022/03/31 08:36:38;;;;;;;23.70;13.30;;;;;;;;;;5047578;28;20036;-80
2022/03/31 08:39:05;;;;;;;23.83;13.65;;;;;;;;;;5047248;28;20098;-79
2022/03/31 08:41:33;;;;;;;24.20;13.57;;;;;;;;;;5028438;28;20044;-80
2022/03/31 08:43:59;;;;;;;26.42;14.25;;;;;;;;;;5047364;28;20028;-80
2022/03/31 08:46:32;;;;;;;23.42;13.52;;;;;;;;;;5047219;28;20036;-78
2022/03/31 08:48:59;;;;;;;24.23;13.18;;;;;;;;;;5027713;28;20028;-79
2022/03/31 08:51:25;;;;;;;26.92;14.40;;;;;;;;;;5044315;28;20029;-78
2022/03/31 08:53:51;;;;;;;24.55;13.13;;;;;;;;;;5043334;28;20025;-79
2022/03/31 08:56:17;;;;;;;24.63;13.98;;;;;;;;;;5031896;28;20029;-78
2022/03/31 08:58:44;;;;;;;26.80;14.05;;;;;;;;;;5033789;28;20033;-80
2022/03/31 09:01:14;;;;;;;32.53;18.73;;;;;;;;;;5047124;28;20037;-80
2022/03/31 09:03:41;;;;;;;24.73;13.75;;;;;;;;;;5046813;28;20039;-78
2022/03/31 09:06:10;;;;;;;24.80;13.80;;;;;;;;;;5046908;28;20029;-78
2022/03/31 09:08:36;;;;;;;25.38;14.40;;;;;;;;;;5046800;28;20029;-77
2022/03/31 09:11:03;;;;;;;25.55;13.93;;;;;;;;;;5046683;28;20040;-77
2022/03/31 09:13:40;;;;;;;28.17;13.88;;;;;;;;;;5028313;28;20041;-76
2022/03/31 09:16:10;;;;;;;23.63;13.00;;;;;;;;;;5047087;28;20029;-80
2022/03/31 09:18:38;;;;;;;27.30;14.50;;;;;;;;;;5046239;28;20021;-78
2022/03/31 09:21:06;;;;;;;24.65;13.52;;;;;;;;;;5045977;28;20532;-78
2022/03/31 09:24:00;;;;;;;24.30;14.13;;;;;;;;;;5046326;28;20584;-78
2022/03/31 09:26:31;;;;;;;26.00;14.15;;;;;;;;;;5025696;28;20037;-78
2022/03/31 09:29:11;;;;;;;23.85;13.88;;;;;;;;;;5046204;28;20052;-78
2022/03/31 09:31:37;;;;;;;26.42;13.70;;;;;;;;;;5046260;28;20035;-80
2022/03/31 09:34:03;;;;;;;26.33;13.63;;;;;;;;;;5054256;28;20036;-79
2022/03/31 09:36:29;;;;;;;26.08;14.23;;;;;;;;;;5056752;28;20047;-78
2022/03/31 09:39:02;;;;;;;27.50;13.93;;;;;;;;;;5040588;28;20299;-78
2022/03/31 09:41:31;;;;;;;23.77;13.40;;;;;;;;;;5035886;28;20397;-79
2022/03/31 09:44:00;;;;;;;27.90;14.50;;;;;;;;;;5046989;28;20040;-80
2022/03/31 09:46:36;;;;;;;25.10;14.23;;;;;;;;;;5048096;28;20044;-80
2022/03/31 09:49:16;;;;;;;26.95;13.65;;;;;;;;;;5047420;28;20025;-81
2022/03/31 09:51:44;;;;;;;28.02;13.60;;;;;;;;;;5047099;28;20037;-76
2022/03/31 09:54:11;;;;;;;53.15;28.25;;;;;;;;;;5045974;28;20498;-76
2022/03/31 09:56:39;;;;;;;26.42;14.65;;;;;;;;;;5045668;28;20032;-76
2022/03/31 09:59:08;;;;;;;25.75;15.48;;;;;;;;;;5046514;28;20032;-86
2022/03/31 10:01:34;;;;;;;26.45;14.52;;;;;;;;;;5051611;28;20044;-86
2022/03/31 10:04:02;;;;;;;24.00;14.25;;;;;;;;;;5029329;28;20503;-79
2022/03/31 10:06:28;;;;;;;28.00;14.45;;;;;;;;;;5051060;28;20040;-82
2022/03/31 10:08:57;;;;;;;29.13;14.95;;;;;;;;;;5033700;28;20044;-86
2022/03/31 10:11:24;;;;;;;30.33;14.02;;;;;;;;;;5052091;28;20649;-80
2022/03/31 10:13:53;;;;;;;26.15;15.93;;;;;;;;;;5051259;28;20047;-79
2022/03/31 10:16:38;;;;;;;31.35;14.55;;;;;;;;;;5050767;28;20088;-79
2022/03/31 10:19:04;;;;;;;29.42;14.77;;;;;;;;;;5051658;28;20036;-80
2022/03/31 10:21:30;;;;;;;29.02;14.75;;;;;;;;;;5052037;28;20100;-80
2022/03/31 10:26:41;;;;;;;27.95;14.52;;;;;;;;;;5053005;28;20037;-80
2022/03/31 10:29:13;;;;;;;25.88;13.65;;;;;;;;;;5075838;28;20035;-80
2022/03/31 10:31:44;;;;;;;27.70;15.57;;;;;;;;;;5076698;28;20013;-80
2022/03/31 10:34:14;;;;;;;28.20;15.45;;;;;;;;;;5067761;28;20039;-80
2022/03/31 10:36:43;;;;;;;38.88;22.15;;;;;;;;;;5033573;28;20036;-81
2022/03/31 10:39:19;;;;;;;27.23;15.98;;;;;;;;;;5052085;28;20021;-80
2022/03/31 10:41:47;;;;;;;30.95;14.65;;;;;;;;;;5033584;28;20052;-80
2022/03/31 10:44:12;;;;;;;26.70;15.10;;;;;;;;;;5052267;28;20050;-80
2022/03/31 10:46:40;;;;;;;28.55;15.13;;;;;;;;;;5051347;28;20032;-80
2022/03/31 10:49:13;;;;;;;29.33;15.20;;;;;;;;;;5032604;28;20128;-80
2022/03/31 10:51:43;;;;;;;32.58;15.95;;;;;;;;;;5051541;28;20024;-79
2022/03/31 10:54:22;;;;;;;28.17;14.82;;;;;;;;;;5051886;28;20026;-79
2022/03/31 10:56:48;;;;;;;28.58;14.95;;;;;;;;;;5051323;28;20268;-79
2022/03/31 10:59:15;;;;;;;25.58;14.95;;;;;;;;;;5051182;28;20430;-80
2022/03/31 11:01:41;;;;;;;28.10;15.18;;;;;;;;;;5032215;28;20433;-79
2022/03/31 11:04:10;;;;;;;27.73;15.27;;;;;;;;;;5051602;28;20029;-79
2022/03/31 11:06:47;;;;;;;32.90;15.77;;;;;;;;;;5032815;28;20037;-79
2022/03/31 11:09:32;;;;;;;27.65;15.63;;;;;;;;;;5051110;28;20035;-79
2022/03/31 11:11:59;;;;;;;27.80;16.02;;;;;;;;;;5050085;28;20136;-80
2022/03/31 11:14:26;;;;;;;27.27;15.60;;;;;;;;;;5051250;28;20036;-80
2022/03/31 11:16:52;;;;;;;26.63;15.45;;;;;;;;;;5032142;28;20037;-81
2022/03/31 11:19:21;;;;;;;25.77;15.00;;;;;;;;;;5048606;28;20051;-76
2022/03/31 11:21:48;;;;;;;28.60;15.77;;;;;;;;;;5040671;28;20032;-75
2022/03/31 11:24:14;;;;;;;28.60;15.95;;;;;;;;;;5054245;28;20485;-77
2022/03/31 11:26:44;;;;;;;28.40;15.68;;;;;;;;;;5053920;28;20051;-78
2022/03/31 11:29:16;;;;;;;29.42;16.63;;;;;;;;;;5032880;28;20076;-85
2022/03/31 11:31:46;;;;;;;28.95;15.80;;;;;;;;;;5025750;28;20037;-82
2022/03/31 11:34:22;;;;;;;27.33;15.35;;;;;;;;;;5045834;28;20031;-82
2022/03/31 11:36:48;;;;;;;32.88;16.42;;;;;;;;;;5030572;28;20208;-81
2022/03/31 11:39:18;;;;;;;27.63;16.25;;;;;;;;;;5031612;28;20094;-81
2022/03/31 11:41:45;;;;;;;32.80;17.20;;;;;;;;;;5048128;28;20040;-83
2022/03/31 11:44:11;;;;;;;30.50;15.48;;;;;;;;;;5048872;28;20036;-82
2022/03/31 11:46:47;;;;;;;24.63;14.65;;;;;;;;;;5049994;28;20025;-82
2022/03/31 11:49:18;;;;;;;29.38;16.35;;;;;;;;;;5051849;28;20028;-81
2022/03/31 11:51:52;;;;;;;25.35;15.13;;;;;;;;;;5048746;28;20044;-77
2022/03/31 11:54:20;;;;;;;28.30;16.02;;;;;;;;;;5048758;28;20036;-80
2022/03/31 11:56:46;;;;;;;25.33;15.48;;;;;;;;;;5047676;28;20033;-78
2022/03/31 11:59:15;;;;;;;27.95;16.50;;;;;;;;;;5048627;28;20044;-79
2022/03/31 12:01:47;;;;;;;31.30;18.13;;;;;;;;;;5048132;28;20025;-78
2022/03/31 12:04:21;;;;;;;45.22;27.50;;;;;;;;;;5047905;28;20465;-82
2022/03/31 12:06:48;;;;;;;28.17;15.77;;;;;;;;;;5046812;28;20490;-78
2022/03/31 12:09:15;;;;;;;25.98;15.68;;;;;;;;;;5032201;28;20516;-82
2022/03/31 12:11:41;;;;;;;26.65;15.82;;;;;;;;;;5031308;28;20040;-80
2022/03/31 12:14:09;;;;;;;29.70;16.42;;;;;;;;;;5046569;28;20033;-78
2022/03/31 12:16:49;;;;;;;24.88;14.02;;;;;;;;;;5045944;28;20602;-79
2022/03/31 12:19:16;;;;;;;28.33;15.45;;;;;;;;;;5028053;28;20517;-76
2022/03/31 12:21:51;;;;;;;25.60;13.93;;;;;;;;;;5027757;28;20041;-78
2022/03/31 12:24:19;;;;;;;24.45;14.43;;;;;;;;;;5048950;28;20040;-77
2022/03/31 12:27:14;;;;;;;26.33;14.98;;;;;;;;;;5047102;28;20037;-79
2022/03/31 12:29:40;;;;;;;24.63;14.90;;;;;;;;;;5046228;28;20025;-78
2022/03/31 12:32:13;;;;;;;29.90;15.45;;;;;;;;;;5046912;28;20128;-79
2022/03/31 12:34:54;;;;;;;25.90;15.88;;;;;;;;;;5047532;28;20063;-79
2022/03/31 12:37:30;;;;;;;24.65;13.77;;;;;;;;;;5048441;28;20033;-79
2022/03/31 12:39:57;;;;;;;24.83;14.73;;;;;;;;;;5027186;28;20033;-78
2022/03/31 12:42:23;;;;;;;27.52;15.23;;;;;;;;;;5029464;28;20029;-79
2022/03/31 12:44:49;;;;;;;24.98;14.57;;;;;;;;;;5029765;28;20034;-79
2022/03/31 12:47:23;;;;;;;24.30;15.18;;;;;;;;;;5029319;28;20032;-80
2022/03/31 12:49:50;;;;;;;30.42;14.82;;;;;;;;;;5029346;28;20022;-79
2022/03/31 12:52:18;;;;;;;29.60;15.10;;;;;;;;;;5029971;28;20501;-81
2022/03/31 12:54:51;;;;;;;25.85;14.40;;;;;;;;;;5010409;28;20060;-78
2022/03/31 12:57:20;;;;;;;25.80;13.50;;;;;;;;;;5028358;28;20440;-79
2022/03/31 12:59:59;;;;;;;22.20;13.95;;;;;;;;;;5038363;28;20485;-79
2022/03/31 13:02:25;;;;;;;27.73;14.95;;;;;;;;;;5043576;28;20502;-79
2022/03/31 13:04:51;;;;;;;27.48;15.25;;;;;;;;;;5048940;28;20033;-79
2022/03/31 13:07:27;;;;;;;28.33;13.70;;;;;;;;;;5030138;28;20123;-79
2022/03/31 13:09:58;;;;;;;23.60;13.43;;;;;;;;;;5049056;28;20032;-79
2022/03/31 13:12:25;;;;;;;24.58;14.18;;;;;;;;;;5048908;28;20043;-79
2022/03/31 13:14:51;;;;;;;25.42;14.02;;;;;;;;;;5048842;28;20029;-80
2022/03/31 13:17:18;;;;;;;24.42;14.70;;;;;;;;;;5048416;28;20037;-79
2022/03/31 13:19:45;;;;;;;25.15;13.63;;;;;;;;;;5048422;28;20037;-79
2022/03/31 13:22:16;;;;;;;25.10;13.18;;;;;;;;;;5049078;28;20390;-80
2022/03/31 13:24:43;;;;;;;23.67;12.55;;;;;;;;;;5049700;28;20043;-79
2022/03/31 13:27:10;;;;;;;24.08;14.13;;;;;;;;;;5048883;28;20033;-79
2022/03/31 13:29:37;;;;;;;23.27;13.35;;;;;;;;;;5046995;28;20028;-79
2022/03/31 13:32:03;;;;;;;24.90;13.38;;;;;;;;;;5025737;28;20040;-79
2022/03/31 13:34:31;;;;;;;22.02;13.27;;;;;;;;;;5048066;28;20044;-79
2022/03/31 13:36:59;;;;;;;21.23;12.73;;;;;;;;;;5043376;28;20029;-80
2022/03/31 13:39:27;;;;;;;24.45;12.80;;;;;;;;;;5051071;28;20494;-79
2022/03/31 13:41:53;;;;;;;20.77;12.70;;;;;;;;;;5052184;28;20469;-81
2022/03/31 13:44:19;;;;;;;23.75;13.55;;;;;;;;;;5044441;28;20029;-79
2022/03/31 13:46:46;;;;;;;23.23;13.70;;;;;;;;;;5052644;28;20151;-79
2022/03/31 13:49:13;;;;;;;22.40;13.40;;;;;;;;;;5052653;28;20454;-79
2022/03/31 13:51:40;;;;;;;20.42;12.65;;;;;;;;;;5052946;28;20482;-79
2022/03/31 13:54:07;;;;;;;22.92;13.07;;;;;;;;;;5034343;28;20037;-79
2022/03/31 13:56:35;;;;;;;20.27;12.73;;;;;;;;;;5052357;28;20035;-79
2022/03/31 14:01:46;;;;;;;21.08;12.02;;;;;;;;;;5051837;28;20481;-79
2022/03/31 14:04:12;;;;;;;21.50;12.75;;;;;;;;;;5051649;28;20043;-79
2022/03/31 14:06:38;;;;;;;21.55;12.02;;;;;;;;;;5043628;28;20029;-80
2022/03/31 14:09:04;;;;;;;20.92;12.05;;;;;;;;;;5039682;28;20106;-78
2022/03/31 14:11:30;;;;;;;23.60;12.75;;;;;;;;;;5032279;28;20104;-79
2022/03/31 14:13:57;;;;;;;21.48;12.52;;;;;;;;;;5038335;28;20036;-79
2022/03/31 14:16:28;;;;;;;22.33;12.82;;;;;;;;;;5051619;28;20029;-78
2022/03/31 14:18:58;;;;;;;21.08;12.27;;;;;;;;;;5041186;28;20039;-80
2022/03/31 14:21:24;;;;;;;22.13;12.35;;;;;;;;;;5052107;28;20033;-79
2022/03/31 14:23:51;;;;;;;23.02;12.75;;;;;;;;;;5051100;28;20033;-79
2022/03/31 14:26:19;;;;;;;19.70;11.40;;;;;;;;;;5049719;28;20025;-80
2022/03/31 14:28:48;;;;;;;24.00;12.35;;;;;;;;;;5045521;28;20391;-77